createdAt,value
2023-05-04T00:00:22.550Z,7.53
2023-05-04T00:02:45.837Z,6.60
2023-05-04T00:05:10.293Z,6.80
2023-05-04T00:07:33.747Z,7.00
2023-05-04T00:09:57.050Z,6.05
2023-05-04T00:12:21.754Z,5.95
2023-05-04T00:14:45.036Z,6.72
2023-05-04T00:17:08.785Z,6.88
2023-05-04T00:19:32.573Z,6.55
2023-05-04T00:21:55.955Z,6.80
2023-05-04T00:24:19.182Z,6.60
2023-05-04T00:26:42.479Z,7.05
2023-05-04T00:29:07.102Z,7.05
2023-05-04T00:31:30.588Z,7.25
2023-05-04T00:33:53.972Z,6.53
2023-05-04T00:36:17.499Z,6.72
2023-05-04T00:38:50.110Z,6.90
2023-05-04T00:41:13.418Z,6.57
2023-05-04T00:43:36.689Z,6.05
2023-05-04T00:46:01.414Z,6.30
2023-05-04T00:48:24.706Z,6.55
2023-05-04T00:50:48.028Z,6.85
2023-05-04T00:53:12.721Z,5.95
2023-05-04T00:55:38.559Z,6.20
2023-05-04T00:58:01.977Z,5.85
2023-05-04T01:00:25.327Z,5.70
2023-05-04T01:02:51.174Z,5.75
2023-05-04T01:05:15.157Z,6.78
2023-05-04T01:07:49.059Z,6.50
2023-05-04T01:10:18.699Z,5.43
2023-05-04T01:12:46.750Z,5.72
2023-05-04T01:15:11.559Z,6.32
2023-05-04T01:17:34.995Z,5.68
2023-05-04T01:19:59.619Z,6.45
2023-05-04T01:22:24.921Z,6.22
2023-05-04T01:24:50.724Z,5.82
2023-05-04T01:27:24.381Z,6.50
2023-05-04T01:29:56.676Z,5.68
2023-05-04T01:32:21.020Z,6.78
2023-05-04T01:34:44.332Z,5.90
2023-05-04T01:37:08.008Z,5.95
2023-05-04T01:39:34.861Z,5.20
2023-05-04T01:41:58.907Z,5.28
2023-05-04T01:44:22.187Z,5.85
2023-05-04T01:46:47.667Z,5.90
2023-05-04T01:49:11.092Z,5.65
2023-05-04T01:51:34.392Z,6.15
2023-05-04T01:53:57.694Z,5.57
2023-05-04T01:56:22.796Z,5.85
2023-05-04T01:58:48.271Z,5.22
2023-05-04T02:01:11.593Z,5.97
2023-05-04T02:03:35.277Z,5.70
2023-05-04T02:05:59.527Z,5.63
2023-05-04T02:08:22.854Z,6.00
2023-05-04T02:10:46.348Z,5.82
2023-05-04T02:13:10.995Z,5.55
2023-05-04T02:15:34.416Z,5.75
2023-05-04T02:17:57.692Z,5.90
2023-05-04T02:20:21.195Z,6.40
2023-05-04T02:22:44.505Z,5.78
2023-05-04T02:25:09.110Z,5.80
2023-05-04T02:27:33.420Z,6.10
2023-05-04T02:29:59.083Z,5.95
2023-05-04T02:32:22.729Z,5.85
2023-05-04T02:34:46.436Z,5.65
2023-05-04T02:37:09.691Z,6.38
2023-05-04T02:39:32.987Z,5.97
2023-05-04T02:41:56.290Z,7.28
2023-05-04T02:44:19.576Z,6.25
2023-05-04T02:46:44.216Z,6.43
2023-05-04T02:49:08.032Z,6.18
2023-05-04T02:51:31.312Z,6.50
2023-05-04T02:53:54.536Z,6.38
2023-05-04T02:56:17.805Z,6.72
2023-05-04T02:58:41.086Z,6.50
2023-05-04T03:01:04.500Z,7.10
2023-05-04T03:03:29.233Z,5.95
2023-05-04T03:05:52.545Z,6.32
2023-05-04T03:08:15.844Z,6.75
2023-05-04T03:10:39.113Z,6.30
2023-05-04T03:13:06.133Z,6.63
2023-05-04T03:15:29.534Z,6.25
2023-05-04T03:17:52.988Z,6.20
2023-05-04T03:20:17.963Z,7.10
2023-05-04T03:22:41.344Z,7.05
2023-05-04T03:25:06.212Z,6.25
2023-05-04T03:27:29.524Z,6.30
2023-05-04T03:29:53.377Z,6.57
2023-05-04T03:32:16.925Z,5.90
2023-05-04T03:34:40.456Z,7.18
2023-05-04T03:37:05.229Z,6.65
2023-05-04T03:39:28.685Z,7.10
2023-05-04T03:41:52.659Z,6.30
2023-05-04T03:44:16.620Z,7.40
2023-05-04T03:46:40.655Z,6.45
2023-05-04T03:49:04.065Z,7.60
2023-05-04T03:51:27.534Z,8.07
2023-05-04T03:53:52.234Z,6.85
2023-05-04T03:56:15.557Z,6.72
2023-05-04T03:58:38.769Z,7.38
2023-05-04T04:01:03.473Z,7.63
2023-05-04T04:03:27.958Z,7.50
2023-05-04T04:05:51.708Z,6.85
2023-05-04T04:08:15.014Z,7.90
2023-05-04T04:10:39.789Z,7.80
2023-05-04T04:13:03.189Z,6.20
2023-05-04T04:15:26.711Z,8.23
2023-05-04T04:17:50.381Z,7.38
2023-05-04T04:20:14.459Z,7.55
2023-05-04T04:22:37.782Z,7.55
2023-05-04T04:25:01.160Z,7.72
2023-05-04T04:27:25.841Z,7.47
2023-05-04T04:29:49.107Z,7.72
2023-05-04T04:32:12.356Z,7.57
2023-05-04T04:34:35.614Z,7.30
2023-05-04T04:36:58.825Z,7.85
2023-05-04T04:39:22.461Z,8.07
2023-05-04T04:41:45.851Z,8.07
2023-05-04T04:44:10.440Z,8.07
2023-05-04T04:46:34.000Z,8.02
2023-05-04T04:48:57.483Z,8.20
2023-05-04T04:51:21.449Z,7.90
2023-05-04T04:53:44.676Z,8.68
2023-05-04T04:56:09.731Z,7.68
2023-05-04T04:58:33.514Z,8.25
2023-05-04T05:00:59.140Z,8.20
2023-05-04T05:03:22.425Z,8.32
2023-05-04T05:05:45.711Z,8.85
2023-05-04T05:08:19.177Z,8.93
2023-05-04T05:10:44.194Z,8.52
2023-05-04T05:13:07.952Z,8.65
2023-05-04T05:15:31.311Z,8.63
2023-05-04T05:17:56.638Z,9.65
2023-05-04T05:20:20.000Z,8.05
2023-05-04T05:22:43.409Z,10.35
2023-05-04T05:25:07.536Z,8.90
2023-05-04T05:27:31.018Z,9.05
2023-05-04T05:29:54.356Z,9.32
2023-05-04T05:32:17.605Z,8.90
2023-05-04T05:34:42.400Z,9.13
2023-05-04T05:37:05.785Z,8.10
2023-05-04T05:39:29.310Z,8.35
2023-05-04T05:41:52.572Z,8.02
2023-05-04T05:44:15.888Z,8.10
2023-05-04T05:46:39.169Z,7.65
2023-05-04T05:49:02.942Z,7.72
2023-05-04T05:51:27.545Z,8.20
2023-05-04T05:53:50.779Z,8.48
2023-05-04T05:56:14.859Z,8.00
2023-05-04T05:58:38.383Z,7.88
2023-05-04T06:01:01.684Z,8.95
2023-05-04T06:03:25.166Z,7.60
2023-05-04T06:05:48.497Z,8.02
2023-05-04T06:08:13.049Z,8.25
2023-05-04T06:10:36.343Z,7.70
2023-05-04T06:12:59.668Z,8.25
2023-05-04T06:15:22.927Z,6.75
2023-05-04T06:17:46.201Z,6.57
2023-05-04T06:20:10.166Z,6.75
2023-05-04T06:22:33.529Z,6.80
2023-05-04T06:25:02.733Z,6.85
2023-05-04T06:27:28.834Z,7.18
2023-05-04T06:29:52.328Z,6.55
2023-05-04T06:32:16.091Z,6.85
2023-05-04T06:34:39.375Z,6.45
2023-05-04T06:37:03.416Z,6.22
2023-05-04T06:39:26.755Z,5.93
2023-05-04T06:41:51.751Z,6.45
2023-05-04T06:44:17.608Z,6.28
2023-05-04T06:46:40.981Z,5.18
2023-05-04T06:49:04.432Z,5.85
2023-05-04T06:51:27.721Z,5.13
2023-05-04T06:53:51.008Z,5.88
2023-05-04T06:56:14.407Z,4.97
2023-05-04T06:58:38.983Z,5.05
2023-05-04T07:01:02.647Z,4.90
2023-05-04T07:03:26.103Z,5.05
2023-05-04T07:05:50.973Z,5.22
2023-05-04T07:08:14.203Z,5.13
2023-05-04T07:10:37.557Z,4.85
2023-05-04T07:13:00.826Z,5.75
2023-05-04T07:15:25.588Z,4.90
2023-05-04T07:17:49.819Z,4.97
2023-05-04T07:20:15.142Z,4.97
2023-05-04T07:22:38.404Z,5.10
2023-05-04T07:25:03.043Z,5.63
2023-05-04T07:27:26.763Z,4.85
2023-05-04T07:29:50.911Z,5.00
2023-05-04T07:32:15.640Z,5.40
2023-05-04T07:34:45.665Z,5.30
2023-05-04T07:37:09.837Z,5.18
2023-05-04T07:39:35.995Z,4.63
2023-05-04T07:41:59.636Z,5.10
2023-05-04T07:44:22.977Z,5.10
2023-05-04T07:46:46.345Z,5.13
2023-05-04T07:49:10.942Z,5.20
2023-05-04T07:51:34.317Z,4.70
2023-05-04T07:53:57.590Z,5.10
2023-05-04T07:56:21.360Z,4.72
2023-05-04T07:58:44.608Z,4.65
2023-05-04T08:01:08.000Z,4.65
2023-05-04T08:03:32.138Z,5.15
2023-05-04T08:05:56.808Z,4.88
2023-05-04T08:08:20.910Z,4.97
2023-05-04T08:10:45.076Z,5.32
2023-05-04T08:13:08.419Z,5.47
2023-05-04T08:15:31.707Z,5.93
2023-05-04T08:17:55.645Z,5.43
2023-05-04T08:20:19.393Z,5.07
2023-05-04T08:22:44.548Z,5.13
2023-05-04T08:25:11.342Z,4.97
2023-05-04T08:27:34.592Z,4.32
2023-05-04T08:29:58.887Z,4.43
2023-05-04T08:32:22.185Z,4.70
2023-05-04T08:34:45.473Z,4.57
2023-05-04T08:37:09.002Z,4.47
2023-05-04T08:39:33.709Z,4.00
2023-05-04T08:41:56.973Z,3.90
2023-05-04T08:44:20.324Z,4.40
2023-05-04T08:46:44.284Z,4.25
2023-05-04T08:49:08.228Z,3.90
2023-05-04T08:51:36.939Z,3.85
2023-05-04T08:54:00.760Z,3.40
2023-05-04T08:56:26.540Z,3.05
2023-05-04T08:58:52.386Z,3.65
2023-05-04T09:01:18.516Z,3.88
2023-05-04T09:03:43.036Z,3.88
2023-05-04T09:06:09.498Z,3.72
2023-05-04T09:08:33.095Z,4.45
2023-05-04T09:10:56.374Z,4.15
2023-05-04T09:13:20.962Z,5.07
2023-05-04T09:15:44.239Z,5.13
2023-05-04T09:18:09.907Z,5.30
2023-05-04T09:20:45.041Z,4.63
2023-05-04T09:23:10.533Z,4.95
2023-05-04T09:25:34.196Z,4.88
2023-05-04T09:27:57.640Z,5.30
2023-05-04T09:30:24.035Z,4.82
2023-05-04T09:32:48.539Z,5.47
2023-05-04T09:35:18.695Z,4.65
2023-05-04T09:37:48.906Z,5.47
2023-05-04T09:40:14.597Z,5.13
2023-05-04T09:42:38.219Z,4.97
2023-05-04T09:45:03.098Z,6.25
2023-05-04T09:47:35.234Z,5.50
2023-05-04T09:49:58.593Z,4.70
2023-05-04T09:52:21.887Z,4.47
2023-05-04T09:54:47.122Z,4.60
2023-05-04T09:57:14.070Z,4.55
2023-05-04T09:59:37.818Z,4.05
2023-05-04T10:02:10.580Z,4.40
2023-05-04T10:04:44.911Z,4.53
2023-05-04T10:07:08.349Z,4.20
2023-05-04T10:09:32.878Z,4.80
2023-05-04T10:11:56.717Z,4.80
2023-05-04T10:14:20.124Z,3.88
2023-05-04T10:16:53.296Z,4.03
2023-05-04T10:19:52.986Z,3.78
2023-05-04T10:22:34.874Z,4.22
2023-05-04T10:25:28.537Z,4.10
2023-05-04T10:28:03.554Z,4.25
2023-05-04T10:30:27.078Z,3.70
2023-05-04T10:32:57.225Z,4.03
2023-05-04T10:35:22.298Z,4.25
2023-05-04T10:37:54.395Z,3.70
2023-05-04T10:40:18.194Z,4.10
2023-05-04T10:42:45.546Z,4.47
2023-05-04T10:45:10.162Z,4.15
2023-05-04T10:47:35.658Z,4.30
2023-05-04T10:50:04.542Z,4.90
2023-05-04T10:52:29.202Z,4.10
2023-05-04T10:55:01.407Z,4.07
2023-05-04T10:57:25.073Z,4.20
2023-05-04T10:59:57.143Z,4.45
2023-05-04T11:02:24.521Z,4.00
2023-05-04T11:04:47.884Z,4.35
2023-05-04T11:07:11.172Z,4.13
2023-05-04T11:09:42.089Z,3.67
2023-05-04T11:12:05.985Z,3.60
2023-05-04T11:14:30.292Z,4.50
2023-05-04T11:16:53.823Z,3.95
2023-05-04T11:19:19.245Z,3.72
2023-05-04T11:21:42.651Z,3.35
2023-05-04T11:24:06.602Z,3.63
2023-05-04T11:26:33.566Z,3.53
2023-05-04T11:28:56.870Z,3.20
2023-05-04T11:31:22.404Z,3.35
2023-05-04T11:33:48.095Z,3.40
2023-05-04T11:36:12.003Z,4.28
2023-05-04T11:38:35.426Z,3.40
2023-05-04T11:40:58.831Z,3.10
2023-05-04T11:43:23.781Z,2.95
2023-05-04T11:45:49.800Z,3.60
2023-05-04T11:48:14.713Z,3.25
2023-05-04T11:50:39.309Z,3.15
2023-05-04T11:53:07.635Z,3.30
2023-05-04T11:55:32.391Z,2.72
2023-05-04T11:58:00.273Z,2.70
2023-05-04T12:00:40.165Z,2.80
2023-05-04T12:03:03.769Z,2.63
2023-05-04T12:05:27.436Z,2.75
2023-05-04T12:07:50.731Z,2.67
2023-05-04T12:10:14.122Z,3.17
2023-05-04T12:12:37.830Z,2.70
2023-05-04T12:15:01.351Z,3.13
2023-05-04T12:17:26.089Z,2.97
2023-05-04T12:19:55.277Z,2.90
2023-05-04T12:22:19.359Z,2.80
2023-05-04T12:24:42.776Z,2.65
2023-05-04T12:27:06.074Z,2.90
2023-05-04T12:29:29.308Z,2.75
2023-05-04T12:31:52.676Z,2.63
2023-05-04T12:34:17.293Z,4.95
2023-05-04T12:36:40.559Z,2.40
2023-05-04T12:39:04.151Z,2.60
2023-05-04T12:41:27.725Z,2.30
2023-05-04T12:43:51.062Z,2.45
2023-05-04T12:46:14.320Z,2.40
2023-05-04T12:48:37.622Z,2.60
2023-05-04T12:51:04.078Z,2.42
2023-05-04T12:53:29.986Z,3.60
2023-05-04T12:55:53.468Z,2.13
2023-05-04T12:58:16.786Z,2.72
2023-05-04T13:00:40.468Z,2.85
2023-05-04T13:03:04.392Z,2.47
2023-05-04T13:05:28.059Z,2.72
2023-05-04T13:07:53.195Z,2.33
2023-05-04T13:10:16.877Z,3.55
2023-05-04T13:12:40.532Z,3.25
2023-05-04T13:15:04.201Z,2.40
2023-05-04T13:17:30.636Z,2.28
2023-05-04T13:19:53.978Z,1.98
2023-05-04T13:22:17.792Z,2.13
2023-05-04T13:24:42.418Z,2.22
2023-05-04T13:27:06.103Z,2.40
2023-05-04T13:29:29.323Z,2.15
2023-05-04T13:31:53.200Z,2.13
2023-05-04T13:34:16.547Z,2.47
2023-05-04T13:36:40.242Z,2.10
2023-05-04T13:39:03.638Z,2.70
2023-05-04T13:41:28.357Z,2.63
2023-05-04T13:43:51.754Z,2.00
2023-05-04T13:46:15.072Z,2.40
2023-05-04T13:48:38.712Z,2.30
2023-05-04T13:51:04.653Z,2.33
2023-05-04T13:53:28.680Z,2.45
2023-05-04T13:55:51.930Z,2.20
2023-05-04T13:58:16.549Z,2.58
2023-05-04T14:00:39.867Z,2.00
2023-05-04T14:03:03.426Z,2.30
2023-05-04T14:05:26.881Z,2.25
2023-05-04T14:07:51.661Z,2.45
2023-05-04T14:10:15.110Z,2.63
2023-05-04T14:12:38.455Z,2.70
2023-05-04T14:15:04.434Z,2.65
2023-05-04T14:17:27.884Z,2.20
2023-05-04T14:19:51.265Z,2.25
2023-05-04T14:22:14.503Z,2.20
2023-05-04T14:24:37.815Z,2.60
2023-05-04T14:27:01.084Z,2.67
2023-05-04T14:29:24.408Z,2.75
2023-05-04T14:31:49.072Z,2.53
2023-05-04T14:34:12.441Z,2.40
2023-05-04T14:36:36.588Z,2.20
2023-05-04T14:39:00.460Z,2.45
2023-05-04T14:41:23.607Z,2.50
2023-05-04T14:43:47.023Z,2.38
2023-05-04T14:46:10.402Z,2.15
2023-05-04T14:48:35.057Z,2.20
2023-05-04T14:50:58.552Z,2.60
2023-05-04T14:53:23.468Z,2.50
2023-05-04T14:55:47.272Z,2.40
2023-05-04T14:58:10.655Z,2.38
2023-05-04T15:00:34.017Z,2.50
2023-05-04T15:02:57.330Z,2.50
2023-05-04T15:05:22.099Z,2.78
2023-05-04T15:07:45.819Z,2.35
2023-05-04T15:10:11.228Z,2.60
2023-05-04T15:12:34.917Z,2.30
2023-05-04T15:14:58.149Z,2.35
2023-05-04T15:17:21.922Z,2.13
2023-05-04T15:19:45.262Z,2.22
2023-05-04T15:22:10.273Z,2.38
2023-05-04T15:24:34.136Z,2.42
2023-05-04T15:26:57.682Z,2.20
2023-05-04T15:29:21.067Z,2.70
2023-05-04T15:31:44.385Z,2.72
2023-05-04T15:34:08.085Z,2.30
2023-05-04T15:36:31.741Z,2.30
2023-05-04T15:38:56.378Z,2.72
2023-05-04T15:41:19.808Z,2.15
2023-05-04T15:43:43.027Z,2.45
2023-05-04T15:46:06.456Z,2.55
2023-05-04T15:48:29.731Z,2.65
2023-05-04T15:50:53.049Z,2.15
2023-05-04T15:53:16.462Z,2.38
2023-05-04T15:55:41.242Z,2.40
2023-05-04T15:58:04.810Z,2.17
2023-05-04T16:00:28.280Z,2.22
2023-05-04T16:02:51.875Z,2.70
2023-05-04T16:05:15.265Z,2.47
2023-05-04T16:07:38.615Z,2.50
2023-05-04T16:10:01.883Z,2.53
2023-05-04T16:12:26.975Z,2.45
2023-05-04T16:14:50.886Z,2.30
2023-05-04T16:17:14.494Z,2.30
2023-05-04T16:19:38.033Z,2.28
2023-05-04T16:22:01.818Z,2.47
2023-05-04T16:24:25.933Z,2.25
2023-05-04T16:26:49.817Z,2.10
2023-05-04T16:29:14.824Z,2.13
2023-05-04T16:31:38.252Z,1.90
2023-05-04T16:34:01.608Z,2.03
2023-05-04T16:36:25.018Z,2.25
2023-05-04T16:38:49.769Z,1.90
2023-05-04T16:41:13.500Z,2.40
2023-05-04T16:43:36.773Z,2.58
2023-05-04T16:46:01.426Z,2.30
2023-05-04T16:48:24.859Z,2.30
2023-05-04T16:50:48.286Z,2.20
2023-05-04T16:53:11.983Z,1.83
2023-05-04T16:55:36.915Z,2.20
2023-05-04T16:58:00.213Z,2.28
2023-05-04T17:00:23.708Z,2.60
2023-05-04T17:02:48.376Z,2.00
2023-05-04T17:05:11.929Z,3.17
2023-05-04T17:07:35.258Z,2.10
2023-05-04T17:09:58.605Z,2.58
2023-05-04T17:12:23.291Z,2.28
2023-05-04T17:14:47.253Z,2.53
2023-05-04T17:17:10.792Z,3.17
2023-05-04T17:19:35.997Z,2.20
2023-05-04T17:21:59.294Z,2.35
2023-05-04T17:24:22.682Z,2.72
2023-05-04T17:26:46.092Z,2.40
2023-05-04T17:29:09.299Z,2.58
2023-05-04T17:31:32.590Z,2.42
2023-05-04T17:33:56.102Z,2.55
2023-05-04T17:36:20.769Z,2.30
2023-05-04T17:38:44.080Z,2.70
2023-05-04T17:41:07.557Z,2.83
2023-05-04T17:43:31.082Z,2.40
2023-05-04T17:45:55.796Z,2.55
2023-05-04T17:48:19.351Z,2.28
2023-05-04T17:50:43.250Z,2.70
2023-05-04T17:53:08.059Z,2.53
2023-05-04T17:55:31.719Z,2.72
2023-05-04T17:57:55.680Z,2.65
2023-05-04T18:00:19.650Z,2.50
2023-05-04T18:02:43.105Z,2.67
2023-05-04T18:05:07.940Z,2.47
2023-05-04T18:07:31.252Z,2.47
2023-05-04T18:09:56.034Z,2.47
2023-05-04T18:12:19.312Z,2.22
2023-05-04T18:14:42.579Z,2.50
2023-05-04T18:17:06.103Z,2.70
2023-05-04T18:19:29.511Z,3.08
2023-05-04T18:21:52.809Z,2.42
2023-05-04T18:24:16.588Z,2.75
2023-05-04T18:26:44.233Z,2.60
2023-05-04T18:29:18.311Z,2.63
2023-05-04T18:31:42.566Z,2.38
2023-05-04T18:34:05.997Z,2.85
2023-05-04T18:36:29.488Z,2.72
2023-05-04T18:38:53.305Z,2.83
2023-05-04T18:41:16.824Z,2.80
2023-05-04T18:43:41.728Z,2.80
2023-05-04T18:46:08.782Z,2.58
2023-05-04T18:48:32.052Z,2.80
2023-05-04T18:50:57.234Z,2.80
2023-05-04T18:53:20.710Z,2.72
2023-05-04T18:55:43.967Z,3.05
2023-05-04T18:58:07.247Z,2.83
2023-05-04T19:00:32.002Z,2.80
2023-05-04T19:02:56.481Z,3.10
2023-05-04T19:05:19.891Z,3.20
2023-05-04T19:07:43.236Z,3.08
2023-05-04T19:10:09.086Z,3.20
2023-05-04T19:12:32.660Z,3.10
2023-05-04T19:14:55.976Z,3.42
2023-05-04T19:17:20.669Z,3.17
2023-05-04T19:19:44.334Z,3.35
2023-05-04T19:22:07.880Z,3.38
2023-05-04T19:24:31.316Z,3.10
2023-05-04T19:26:54.607Z,3.30
2023-05-04T19:29:17.836Z,3.42
2023-05-04T19:31:41.346Z,3.25
2023-05-04T19:34:06.865Z,3.10
2023-05-04T19:36:30.370Z,3.08
2023-05-04T19:38:53.667Z,3.10
2023-05-04T19:41:17.039Z,2.97
2023-05-04T19:43:40.434Z,3.00
2023-05-04T19:46:03.872Z,3.10
2023-05-04T19:48:27.387Z,2.70
2023-05-04T19:50:52.084Z,3.20
2023-05-04T19:53:16.588Z,3.50
2023-05-04T19:55:39.906Z,3.08
2023-05-04T19:58:03.695Z,3.50
2023-05-04T20:00:27.122Z,3.92
2023-05-04T20:02:50.945Z,3.90
2023-05-04T20:05:14.772Z,4.22
2023-05-04T20:07:39.644Z,3.88
2023-05-04T20:10:03.949Z,4.07
2023-05-04T20:12:27.404Z,3.50
2023-05-04T20:14:50.952Z,3.80
2023-05-04T20:17:14.622Z,4.05
2023-05-04T20:19:40.514Z,4.03
2023-05-04T20:22:03.769Z,4.07
2023-05-04T20:24:28.665Z,3.85
2023-05-04T20:26:52.009Z,3.83
2023-05-04T20:29:15.417Z,4.15
2023-05-04T20:31:38.860Z,4.05
2023-05-04T20:34:02.165Z,4.22
2023-05-04T20:36:26.113Z,4.80
2023-05-04T20:38:49.629Z,4.32
2023-05-04T20:41:14.343Z,4.57
2023-05-04T20:43:37.929Z,5.13
2023-05-04T20:46:01.330Z,5.20
2023-05-04T20:48:24.686Z,5.40
2023-05-04T20:50:48.299Z,5.25
2023-05-04T20:53:11.653Z,5.05
2023-05-04T20:55:35.245Z,5.53
2023-05-04T20:57:59.949Z,6.30
2023-05-04T21:00:24.455Z,4.97
2023-05-04T21:02:48.356Z,4.80
2023-05-04T21:05:12.321Z,5.30
2023-05-04T21:07:35.602Z,4.57
2023-05-04T21:09:59.056Z,4.75
2023-05-04T21:12:22.784Z,4.22
2023-05-04T21:14:47.542Z,4.60
2023-05-04T21:17:10.957Z,4.50
2023-05-04T21:19:34.564Z,4.40
2023-05-04T21:21:58.002Z,3.88
2023-05-04T21:24:21.299Z,3.78
2023-05-04T21:26:45.951Z,3.60
2023-05-04T21:29:12.845Z,4.10
2023-05-04T21:31:37.775Z,3.47
2023-05-04T21:34:01.261Z,3.80
2023-05-04T21:36:24.547Z,4.13
2023-05-04T21:38:47.862Z,3.55
2023-05-04T21:41:13.049Z,3.90
2023-05-04T21:43:36.390Z,3.92
2023-05-04T21:45:59.703Z,3.75
2023-05-04T21:48:24.351Z,3.50
2023-05-04T21:50:49.127Z,3.88
2023-05-04T21:53:12.377Z,3.60
2023-05-04T21:55:35.991Z,3.50
2023-05-04T21:57:59.217Z,4.20
2023-05-04T22:00:23.958Z,3.60
2023-05-04T22:02:47.259Z,4.10
2023-05-04T22:05:12.646Z,4.22
2023-05-04T22:07:36.680Z,4.10
2023-05-04T22:10:00.206Z,3.85
2023-05-04T22:12:23.467Z,3.92
2023-05-04T22:14:46.757Z,4.40
2023-05-04T22:17:10.018Z,4.20
2023-05-04T22:19:33.356Z,3.40
2023-05-04T22:21:57.979Z,4.30
2023-05-04T22:24:21.397Z,3.65
2023-05-04T22:26:45.176Z,4.40
2023-05-04T22:29:08.494Z,3.78
2023-05-04T22:31:31.828Z,3.85
2023-05-04T22:33:55.495Z,4.35
2023-05-04T22:36:18.817Z,4.60
2023-05-04T22:38:43.493Z,4.03
2023-05-04T22:41:06.963Z,4.10
2023-05-04T22:43:30.159Z,3.58
2023-05-04T22:45:53.561Z,4.10
2023-05-04T22:48:16.868Z,4.50
2023-05-04T22:50:40.106Z,3.97
2023-05-04T22:53:03.610Z,3.70
2023-05-04T22:55:28.307Z,4.20
2023-05-04T22:57:51.634Z,4.15
2023-05-04T23:00:16.710Z,4.20
2023-05-04T23:02:40.269Z,4.53
2023-05-04T23:05:03.880Z,3.97
2023-05-04T23:07:27.162Z,4.63
2023-05-04T23:09:50.362Z,4.15
2023-05-04T23:12:15.872Z,4.50
2023-05-04T23:14:39.145Z,4.70
2023-05-04T23:17:02.709Z,4.50
2023-05-04T23:19:26.042Z,4.43
2023-05-04T23:21:49.317Z,4.40
2023-05-04T23:24:12.814Z,4.25
2023-05-04T23:26:36.108Z,4.28
2023-05-04T23:29:01.037Z,4.53
2023-05-04T23:31:24.477Z,4.75
2023-05-04T23:33:47.778Z,4.63
2023-05-04T23:36:11.317Z,4.47
2023-05-04T23:38:34.844Z,4.63
2023-05-04T23:40:58.199Z,5.03
2023-05-04T23:43:22.547Z,4.57
2023-05-04T23:45:47.339Z,4.88
2023-05-04T23:48:10.727Z,4.65
2023-05-04T23:50:34.350Z,4.78
2023-05-04T23:52:57.678Z,4.78
2023-05-04T23:55:21.244Z,4.88
2023-05-04T23:57:45.001Z,4.50
